Time,TemperatureF,DewpointF,PressureIn,WindDirection,WindDirectionDegrees,WindSpeedMPH,WindSpeedGustMPH,Humidity,HourlyPrecipIn,Conditions,Clouds,dailyrainin,SolarRadiationWatts/m^2,SoftwareType,DateUTC
2013-02-09 00:01:00,30.0,16.0,-100.00,West,274,3.0,10.0,55,0.00,,,0.00,0.000000,,2013-02-09 07:01:00,
2013-02-09 00:11:00,30.0,16.0,-100.00,West,274,3.0,10.0,55,0.00,,,0.00,0.000000,,2013-02-09 07:11:00,
2013-02-09 00:21:00,30.0,16.0,-100.00,West,274,3.0,10.0,55,0.00,,,0.00,0.000000,,2013-02-09 07:21:00,
2013-02-09 00:30:00,28.0,16.0,-100.00,West,271,2.0,6.0,60,0.00,,,0.00,0.000000,,2013-02-09 07:30:00,
2013-02-09 00:52:00,28.0,16.0,-100.00,West,271,2.0,6.0,60,0.00,,,0.00,0.000000,,2013-02-09 07:52:00,
2013-02-09 01:01:00,28.0,16.0,-100.00,West,271,2.0,6.0,60,0.00,,,0.00,0.000000,,2013-02-09 08:01:00,
2013-02-09 01:11:00,28.0,16.0,-100.00,West,271,2.0,6.0,60,0.00,,,0.00,0.000000,,2013-02-09 08:11:00,
2013-02-09 01:21:00,28.0,16.0,-100.00,West,271,2.0,6.0,60,0.00,,,0.00,0.000000,,2013-02-09 08:21:00,
2013-02-09 01:30:00,28.0,17.0,-100.00,West,271,2.0,8.0,62,0.00,,,0.00,0.000000,,2013-02-09 08:30:00,
2013-02-09 01:52:00,28.0,17.0,-100.00,West,271,2.0,8.0,62,0.00,,,0.00,0.000000,,2013-02-09 08:52:00,
2013-02-09 02:02:00,28.0,17.0,-100.00,West,271,2.0,8.0,62,0.00,,,0.00,0.000000,,2013-02-09 09:02:00,
2013-02-09 02:11:00,28.0,17.0,-100.00,West,271,2.0,8.0,62,0.00,,,0.00,0.000000,,2013-02-09 09:11:00,
2013-02-09 02:21:00,28.0,17.0,-100.00,West,271,2.0,8.0,62,0.00,,,0.00,0.000000,,2013-02-09 09:21:00,
2013-02-09 02:30:00,26.0,19.0,-100.00,West,264,3.0,7.0,74,0.00,,,0.00,0.000000,,2013-02-09 09:30:00,
2013-02-09 02:52:00,26.0,19.0,-100.00,West,264,3.0,7.0,74,0.00,,,0.00,0.000000,,2013-02-09 09:52:00,
2013-02-09 03:01:00,26.0,19.0,-100.00,West,264,3.0,7.0,74,0.00,,,0.00,0.000000,,2013-02-09 10:01:00,
2013-02-09 03:11:00,26.0,19.0,-100.00,West,264,3.0,7.0,74,0.00,,,0.00,0.000000,,2013-02-09 10:11:00,
2013-02-09 03:21:00,26.0,19.0,-100.00,West,264,3.0,7.0,74,0.00,,,0.00,0.000000,,2013-02-09 10:21:00,
2013-02-09 03:30:00,25.0,19.0,-100.00,NW,326,1.0,4.0,78,0.00,,,0.00,0.000000,,2013-02-09 10:30:00,
2013-02-09 03:52:00,25.0,19.0,-100.00,NW,326,1.0,4.0,78,0.00,,,0.00,0.000000,,2013-02-09 10:52:00,
2013-02-09 04:01:00,25.0,19.0,-100.00,NW,326,1.0,4.0,78,0.00,,,0.00,0.000000,,2013-02-09 11:01:00,
2013-02-09 04:11:00,25.0,19.0,-100.00,NW,326,1.0,4.0,78,0.00,,,0.00,0.000000,,2013-02-09 11:11:00,
2013-02-09 04:21:00,25.0,19.0,-100.00,NW,326,1.0,4.0,78,0.00,,,0.00,0.000000,,2013-02-09 11:21:00,
2013-02-09 04:30:00,25.0,21.0,-100.00,West,263,3.0,8.0,85,0.00,,,0.00,0.000000,,2013-02-09 11:30:00,
2013-02-09 04:52:00,25.0,21.0,-100.00,West,263,3.0,8.0,85,0.00,,,0.00,0.000000,,2013-02-09 11:52:00,
2013-02-09 05:02:00,25.0,21.0,-100.00,West,263,3.0,8.0,85,0.00,,,0.00,0.000000,,2013-02-09 12:02:00,
2013-02-09 05:11:00,25.0,21.0,-100.00,West,263,3.0,8.0,85,0.00,,,0.00,0.000000,,2013-02-09 12:11:00,
2013-02-09 05:21:00,25.0,21.0,-100.00,West,263,3.0,8.0,85,0.00,,,0.00,0.000000,,2013-02-09 12:21:00,
2013-02-09 05:30:00,25.0,23.0,-100.00,East,91,2.0,5.0,92,0.02,,,0.02,0.000000,,2013-02-09 12:30:00,
2013-02-09 05:52:00,25.0,23.0,-100.00,East,91,2.0,5.0,92,0.02,,,0.02,0.000000,,2013-02-09 12:52:00,
2013-02-09 06:02:00,25.0,23.0,-100.00,East,91,2.0,5.0,92,0.02,,,0.02,0.000000,,2013-02-09 13:02:00,
2013-02-09 06:11:00,25.0,23.0,-100.00,East,91,2.0,5.0,92,0.02,,,0.02,0.000000,,2013-02-09 13:11:00,
2013-02-09 06:21:00,25.0,23.0,-100.00,East,91,2.0,5.0,92,0.02,,,0.02,0.000000,,2013-02-09 13:21:00,
2013-02-09 06:30:00,24.0,22.0,-100.00,NNE,33,2.0,3.0,92,0.00,,,0.02,0.000000,,2013-02-09 13:30:00,
2013-02-09 06:52:00,24.0,22.0,-100.00,NNE,33,2.0,3.0,92,0.00,,,0.02,0.000000,,2013-02-09 13:52:00,
2013-02-09 07:01:00,24.0,22.0,-100.00,NNE,33,2.0,3.0,92,0.00,,,0.02,0.000000,,2013-02-09 14:01:00,
2013-02-09 07:11:00,24.0,22.0,-100.00,NNE,33,2.0,3.0,92,0.00,,,0.02,0.000000,,2013-02-09 14:11:00,
2013-02-09 07:21:00,24.0,22.0,-100.00,NNE,33,2.0,3.0,92,0.00,,,0.02,0.000000,,2013-02-09 14:21:00,
2013-02-09 07:30:00,24.0,22.0,-100.00,SSE,150,1.0,2.0,93,0.00,,,0.02,1.000000,,2013-02-09 14:30:00,
2013-02-09 07:52:00,24.0,22.0,-100.00,SSE,150,1.0,2.0,93,0.00,,,0.02,1.000000,,2013-02-09 14:52:00,
2013-02-09 08:01:00,24.0,22.0,-100.00,SSE,150,1.0,2.0,93,0.00,,,0.02,1.000000,,2013-02-09 15:01:00,
2013-02-09 08:11:00,24.0,22.0,-100.00,SSE,150,1.0,2.0,93,0.00,,,0.02,1.000000,,2013-02-09 15:11:00,
2013-02-09 08:21:00,24.0,22.0,-100.00,SSE,150,1.0,2.0,93,0.00,,,0.02,1.000000,,2013-02-09 15:21:00,
2013-02-09 08:30:00,25.0,22.0,-100.00,SW,233,4.0,7.0,88,0.00,,,0.02,23.000000,,2013-02-09 15:30:00,
2013-02-09 08:52:00,25.0,22.0,-100.00,SW,233,4.0,7.0,88,0.00,,,0.02,23.000000,,2013-02-09 15:52:00,
2013-02-09 09:01:00,25.0,22.0,-100.00,SW,233,4.0,7.0,88,0.00,,,0.02,23.000000,,2013-02-09 16:01:00,
2013-02-09 09:11:00,25.0,22.0,-100.00,SW,233,4.0,7.0,88,0.00,,,0.02,23.000000,,2013-02-09 16:11:00,
2013-02-09 09:21:00,25.0,22.0,-100.00,SW,233,4.0,7.0,88,0.00,,,0.02,23.000000,,2013-02-09 16:21:00,
2013-02-09 09:30:00,27.0,23.0,-100.00,WSW,241,2.0,11.0,83,0.00,,,0.02,58.000000,,2013-02-09 16:30:00,
2013-02-09 09:52:00,27.0,23.0,-100.00,WSW,241,2.0,11.0,83,0.00,,,0.02,58.000000,,2013-02-09 16:52:00,
2013-02-09 10:01:00,27.0,23.0,-100.00,WSW,241,2.0,11.0,83,0.00,,,0.02,58.000000,,2013-02-09 17:01:00,
2013-02-09 10:11:00,27.0,23.0,-100.00,WSW,241,2.0,11.0,83,0.00,,,0.02,58.000000,,2013-02-09 17:11:00,
2013-02-09 10:21:00,27.0,23.0,-100.00,WSW,241,2.0,11.0,83,0.00,,,0.02,58.000000,,2013-02-09 17:21:00,
2013-02-09 10:30:00,29.0,22.0,-100.00,SW,236,3.0,10.0,76,0.00,,,0.02,206.000000,,2013-02-09 17:30:00,
2013-02-09 10:52:00,29.0,22.0,-100.00,SW,236,3.0,10.0,76,0.00,,,0.02,206.000000,,2013-02-09 17:52:00,
2013-02-09 11:01:00,29.0,22.0,-100.00,SW,236,3.0,10.0,76,0.00,,,0.02,206.000000,,2013-02-09 18:01:00,
2013-02-09 11:11:00,29.0,22.0,-100.00,SW,236,3.0,10.0,76,0.00,,,0.02,206.000000,,2013-02-09 18:11:00,
2013-02-09 11:23:00,29.0,22.0,-100.00,SW,236,3.0,10.0,76,0.00,,,0.02,206.000000,,2013-02-09 18:23:00,
2013-02-09 11:30:00,29.0,21.0,-100.00,WSW,247,4.0,9.0,71,0.00,,,0.02,328.000000,,2013-02-09 18:30:00,
2013-02-09 11:52:00,29.0,21.0,-100.00,WSW,247,4.0,9.0,71,0.00,,,0.02,328.000000,,2013-02-09 18:52:00,
2013-02-09 12:01:00,29.0,21.0,-100.00,WSW,247,4.0,9.0,71,0.00,,,0.02,328.000000,,2013-02-09 19:01:00,
2013-02-09 12:11:00,29.0,21.0,-100.00,WSW,247,4.0,9.0,71,0.00,,,0.02,328.000000,,2013-02-09 19:11:00,
2013-02-09 12:22:00,29.0,21.0,-100.00,WSW,247,4.0,9.0,71,0.00,,,0.02,328.000000,,2013-02-09 19:22:00,
2013-02-09 12:52:00,33.0,20.0,-100.00,SW,235,5.0,11.0,59,0.01,,,0.03,448.000000,,2013-02-09 19:52:00,
2013-02-09 13:01:00,33.0,20.0,-100.00,SW,235,5.0,11.0,59,0.01,,,0.03,448.000000,,2013-02-09 20:01:00,
2013-02-09 13:11:00,33.0,20.0,-100.00,SW,235,5.0,11.0,59,0.01,,,0.03,448.000000,,2013-02-09 20:11:00,
2013-02-09 13:21:00,33.0,20.0,-100.00,SW,235,5.0,11.0,59,0.01,,,0.03,448.000000,,2013-02-09 20:21:00,
2013-02-09 13:30:00,25.0,18.0,-100.00,SSW,204,9.0,20.0,73,0.01,,,0.04,198.000000,,2013-02-09 20:30:00,
2013-02-09 13:52:00,25.0,18.0,-100.00,SSW,204,9.0,20.0,73,0.01,,,0.04,198.000000,,2013-02-09 20:52:00,
2013-02-09 14:01:00,25.0,18.0,-100.00,SSW,204,9.0,20.0,73,0.01,,,0.04,198.000000,,2013-02-09 21:01:00,
2013-02-09 14:11:00,25.0,18.0,-100.00,SSW,204,9.0,20.0,73,0.01,,,0.04,198.000000,,2013-02-09 21:11:00,
2013-02-09 14:21:00,25.0,18.0,-100.00,SSW,204,9.0,20.0,73,0.01,,,0.04,198.000000,,2013-02-09 21:21:00,
2013-02-09 14:30:00,22.0,19.0,-100.00,SSW,203,6.0,16.0,89,0.05,,,0.09,95.000000,,2013-02-09 21:30:00,
2013-02-09 14:52:00,22.0,19.0,-100.00,SSW,203,6.0,16.0,89,0.05,,,0.09,95.000000,,2013-02-09 21:52:00,
2013-02-09 15:01:00,22.0,19.0,-100.00,SSW,203,6.0,16.0,89,0.05,,,0.09,95.000000,,2013-02-09 22:01:00,
2013-02-09 15:11:00,22.0,19.0,-100.00,SSW,203,6.0,16.0,89,0.05,,,0.09,95.000000,,2013-02-09 22:11:00,
2013-02-09 15:21:00,22.0,19.0,-100.00,SSW,203,6.0,16.0,89,0.05,,,0.09,95.000000,,2013-02-09 22:21:00,
2013-02-09 15:30:00,23.0,17.0,-100.00,SW,235,5.0,10.0,79,0.02,,,0.11,128.000000,,2013-02-09 22:30:00,
2013-02-09 15:52:00,23.0,17.0,-100.00,SW,235,5.0,10.0,79,0.02,,,0.11,128.000000,,2013-02-09 22:52:00,
2013-02-09 16:01:00,23.0,17.0,-100.00,SW,235,5.0,10.0,79,0.02,,,0.11,128.000000,,2013-02-09 23:01:00,
2013-02-09 16:11:00,23.0,17.0,-100.00,SW,235,5.0,10.0,79,0.02,,,0.11,128.000000,,2013-02-09 23:11:00,
2013-02-09 16:21:00,23.0,17.0,-100.00,SW,235,5.0,10.0,79,0.02,,,0.11,128.000000,,2013-02-09 23:21:00,
2013-02-09 16:30:00,22.0,18.0,-100.00,WSW,256,4.0,8.0,84,0.00,,,0.11,69.000000,,2013-02-09 23:30:00,
2013-02-09 16:52:00,22.0,18.0,-100.00,WSW,256,4.0,8.0,84,0.00,,,0.11,69.000000,,2013-02-09 23:52:00,
2013-02-09 17:02:00,22.0,18.0,-100.00,WSW,256,4.0,8.0,84,0.00,,,0.11,69.000000,,2013-02-10 00:02:00,
2013-02-09 17:11:00,22.0,18.0,-100.00,WSW,256,4.0,8.0,84,0.00,,,0.11,69.000000,,2013-02-10 00:11:00,
2013-02-09 17:21:00,22.0,18.0,-100.00,WSW,256,4.0,8.0,84,0.00,,,0.11,69.000000,,2013-02-10 00:21:00,
2013-02-09 17:30:00,22.0,19.0,-100.00,West,261,2.0,7.0,88,0.01,,,0.12,28.000000,,2013-02-10 00:30:00,
2013-02-09 17:52:00,22.0,19.0,-100.00,West,261,2.0,7.0,88,0.01,,,0.12,28.000000,,2013-02-10 00:52:00,
2013-02-09 18:01:00,22.0,19.0,-100.00,West,261,2.0,7.0,88,0.01,,,0.12,28.000000,,2013-02-10 01:01:00,
2013-02-09 18:11:00,22.0,19.0,-100.00,West,261,2.0,7.0,88,0.01,,,0.12,28.000000,,2013-02-10 01:11:00,
2013-02-09 18:21:00,22.0,19.0,-100.00,West,261,2.0,7.0,88,0.01,,,0.12,28.000000,,2013-02-10 01:21:00,
2013-02-09 18:30:00,22.0,20.0,-100.00,WSW,250,2.0,8.0,90,0.00,,,0.12,1.000000,,2013-02-10 01:30:00,
2013-02-09 18:52:00,22.0,20.0,-100.00,WSW,250,2.0,8.0,90,0.00,,,0.12,1.000000,,2013-02-10 01:52:00,
2013-02-09 19:01:00,22.0,20.0,-100.00,WSW,250,2.0,8.0,90,0.00,,,0.12,1.000000,,2013-02-10 02:01:00,
2013-02-09 19:11:00,22.0,20.0,-100.00,WSW,250,2.0,8.0,90,0.00,,,0.12,1.000000,,2013-02-10 02:11:00,
2013-02-09 19:22:00,22.0,20.0,-100.00,WSW,250,2.0,8.0,90,0.00,,,0.12,1.000000,,2013-02-10 02:22:00,
2013-02-09 19:30:00,22.0,19.0,-100.00,West,259,4.0,10.0,89,0.02,,,0.14,0.000000,,2013-02-10 02:30:00,
2013-02-09 19:52:00,22.0,19.0,-100.00,West,259,4.0,10.0,89,0.02,,,0.14,0.000000,,2013-02-10 02:52:00,
2013-02-09 20:01:00,22.0,19.0,-100.00,West,259,4.0,10.0,89,0.02,,,0.14,0.000000,,2013-02-10 03:01:00,
2013-02-09 20:11:00,22.0,19.0,-100.00,West,259,4.0,10.0,89,0.02,,,0.14,0.000000,,2013-02-10 03:11:00,
2013-02-09 20:21:00,22.0,19.0,-100.00,West,259,4.0,10.0,89,0.02,,,0.14,0.000000,,2013-02-10 03:21:00,
2013-02-09 20:30:00,23.0,19.0,-100.00,West,260,4.0,11.0,85,0.00,,,-99.99,0.000000,,2013-02-10 03:30:00,
2013-02-09 20:52:00,23.0,19.0,-100.00,West,260,4.0,11.0,85,0.00,,,-99.99,0.000000,,2013-02-10 03:52:00,
2013-02-09 21:01:00,23.0,19.0,-100.00,West,260,4.0,11.0,85,0.00,,,-99.99,0.000000,,2013-02-10 04:01:00,
2013-02-09 21:11:00,23.0,19.0,-100.00,West,260,4.0,11.0,85,0.00,,,-99.99,0.000000,,2013-02-10 04:11:00,
2013-02-09 21:21:00,23.0,19.0,-100.00,West,260,4.0,11.0,85,0.00,,,-99.99,0.000000,,2013-02-10 04:21:00,
2013-02-09 21:30:00,23.0,20.0,-100.00,West,263,5.0,11.0,88,0.00,,,0.14,0.000000,,2013-02-10 04:30:00,
2013-02-09 21:52:00,23.0,20.0,-100.00,West,263,5.0,11.0,88,0.00,,,0.14,0.000000,,2013-02-10 04:52:00,
2013-02-09 22:01:00,23.0,20.0,-100.00,West,263,5.0,11.0,88,0.00,,,0.14,0.000000,,2013-02-10 05:01:00,
2013-02-09 22:11:00,23.0,20.0,-100.00,West,263,5.0,11.0,88,0.00,,,0.14,0.000000,,2013-02-10 05:11:00,
2013-02-09 22:22:00,23.0,20.0,-100.00,West,263,5.0,11.0,88,0.00,,,0.14,0.000000,,2013-02-10 05:22:00,
2013-02-09 22:30:00,22.0,19.0,-100.00,WSW,241,5.0,10.0,89,0.00,,,0.14,0.000000,,2013-02-10 05:30:00,
2013-02-09 22:52:00,22.0,19.0,-100.00,WSW,241,5.0,10.0,89,0.00,,,0.14,0.000000,,2013-02-10 05:52:00,
2013-02-09 23:01:00,22.0,19.0,-100.00,WSW,241,5.0,10.0,89,0.00,,,0.14,0.000000,,2013-02-10 06:01:00,
2013-02-09 23:11:00,22.0,19.0,-100.00,WSW,241,5.0,10.0,89,0.00,,,0.14,0.000000,,2013-02-10 06:11:00,
2013-02-09 23:21:00,22.0,19.0,-100.00,WSW,241,5.0,10.0,89,0.00,,,0.14,0.000000,,2013-02-10 06:21:00,
2013-02-09 23:30:00,21.0,19.0,-100.00,WSW,249,7.0,19.0,90,0.01,,,0.15,0.000000,,2013-02-10 06:30:00,
2013-02-09 23:52:00,21.0,19.0,-100.00,WSW,249,7.0,19.0,90,0.01,,,0.15,0.000000,,2013-02-10 06:52:00,